sensor_id;sensor_type;location;lat;lon;timestamp;pressure;altitude;pressure_sealevel;temperature;humidity
7026;BME280;3554;42.132;24.786;2023-02-21T00:02:29;99659.88;;;9.98;63.46
7026;BME280;3554;42.132;24.786;2023-02-21T00:05:14;99652.94;;;9.97;62.74
7026;BME280;3554;42.132;24.786;2023-02-21T00:07:59;99655.47;;;10.00;62.24
7026;BME280;3554;42.132;24.786;2023-02-21T00:10:43;99667.34;;;10.10;61.28
7026;BME280;3554;42.132;24.786;2023-02-21T00:13:27;99668.84;;;10.17;60.29
7026;BME280;3554;42.132;24.786;2023-02-21T00:16:14;99666.78;;;10.25;59.80
7026;BME280;3554;42.132;24.786;2023-02-21T00:18:58;99666.78;;;10.25;59.44
7026;BME280;3554;42.132;24.786;2023-02-21T00:21:43;99658.88;;;10.28;58.88
7026;BME280;3554;42.132;24.786;2023-02-21T00:24:27;99654.69;;;10.23;58.48
7026;BME280;3554;42.132;24.786;2023-02-21T00:27:12;99657.69;;;10.37;58.22
7026;BME280;3554;42.132;24.786;2023-02-21T00:29:56;99655.81;;;10.40;57.99
7026;BME280;3554;42.132;24.786;2023-02-21T00:32:40;99653.88;;;10.45;57.92
7026;BME280;3554;42.132;24.786;2023-02-21T00:35:24;99642.00;;;10.37;58.05
7026;BME280;3554;42.132;24.786;2023-02-21T00:38:09;99640.91;;;10.42;57.25
7026;BME280;3554;42.132;24.786;2023-02-21T00:40:53;99644.50;;;10.40;57.18
7026;BME280;3554;42.132;24.786;2023-02-21T00:43:37;99639.25;;;10.40;57.17
7026;BME280;3554;42.132;24.786;2023-02-21T00:46:21;99640.28;;;10.36;57.58
7026;BME280;3554;42.132;24.786;2023-02-21T00:49:05;99630.19;;;10.25;57.58
7026;BME280;3554;42.132;24.786;2023-02-21T00:51:50;99637.13;;;10.26;57.99
7026;BME280;3554;42.132;24.786;2023-02-21T00:54:36;99600.44;;;10.03;58.40
7026;BME280;3554;42.132;24.786;2023-02-21T00:57:20;99623.44;;;10.18;58.35
7026;BME280;3554;42.132;24.786;2023-02-21T01:00:07;99607.06;;;10.13;58.31
7026;BME280;3554;42.132;24.786;2023-02-21T01:02:52;99610.50;;;10.15;58.62
7026;BME280;3554;42.132;24.786;2023-02-21T01:05:36;99606.63;;;10.25;58.00
7026;BME280;3554;42.132;24.786;2023-02-21T01:08:20;99613.53;;;10.28;57.84
7026;BME280;3554;42.132;24.786;2023-02-21T01:11:06;99611.59;;;10.33;57.38
7026;BME280;3554;42.132;24.786;2023-02-21T01:13:50;99614.06;;;10.37;56.84
7026;BME280;3554;42.132;24.786;2023-02-21T01:16:34;99590.66;;;10.33;56.97
7026;BME280;3554;42.132;24.786;2023-02-21T01:19:18;99594.94;;;10.35;56.96
7026;BME280;3554;42.132;24.786;2023-02-21T01:22:03;99580.00;;;10.39;56.54
7026;BME280;3554;42.132;24.786;2023-02-21T01:24:48;99576.50;;;10.38;56.35
7026;BME280;3554;42.132;24.786;2023-02-21T01:27:35;99568.50;;;10.43;55.89
7026;BME280;3554;42.132;24.786;2023-02-21T01:30:19;99559.06;;;10.39;55.60
7026;BME280;3554;42.132;24.786;2023-02-21T01:33:04;99561.28;;;10.49;55.19
7026;BME280;3554;42.132;24.786;2023-02-21T01:35:48;99562.75;;;10.56;55.08
7026;BME280;3554;42.132;24.786;2023-02-21T01:38:32;99561.16;;;10.52;54.83
7026;BME280;3554;42.132;24.786;2023-02-21T01:41:16;99550.59;;;10.55;54.77
7026;BME280;3554;42.132;24.786;2023-02-21T01:44:04;99535.31;;;10.43;54.72
7026;BME280;3554;42.132;24.786;2023-02-21T01:46:48;99542.34;;;10.43;55.18
7026;BME280;3554;42.132;24.786;2023-02-21T01:49:34;99549.41;;;10.41;55.57
7026;BME280;3554;42.132;24.786;2023-02-21T01:52:19;99545.25;;;10.35;55.76
7026;BME280;3554;42.132;24.786;2023-02-21T01:55:05;99546.19;;;10.33;56.22
7026;BME280;3554;42.132;24.786;2023-02-21T01:57:50;99553.25;;;10.31;56.25
7026;BME280;3554;42.132;24.786;2023-02-21T02:00:37;99541.63;;;10.39;56.43
7026;BME280;3554;42.132;24.786;2023-02-21T02:03:21;99539.75;;;10.41;56.23
7026;BME280;3554;42.132;24.786;2023-02-21T02:06:13;99544.09;;;10.42;56.58
7026;BME280;3554;42.132;24.786;2023-02-21T02:08:57;99529.59;;;10.34;56.29
7026;BME280;3554;42.132;24.786;2023-02-21T02:12:01;99531.34;;;10.33;56.74
7026;BME280;3554;42.132;24.786;2023-02-21T02:17:55;99524.06;;;10.18;57.61
7026;BME280;3554;42.132;24.786;2023-02-21T02:20:52;99483.94;;;9.95;58.23
7026;BME280;3554;42.132;24.786;2023-02-21T02:23:54;99509.97;;;10.22;58.31
7026;BME280;3554;42.132;24.786;2023-02-21T02:29:51;99512.66;;;10.21;58.37
7026;BME280;3554;42.132;24.786;2023-02-21T02:32:37;99518.44;;;10.04;58.70
7026;BME280;3554;42.132;24.786;2023-02-21T02:35:12;99513.22;;;10.04;59.11
7026;BME280;3554;42.132;24.786;2023-02-21T02:37:45;99487.69;;;9.88;59.57
7026;BME280;3554;42.132;24.786;2023-02-21T02:40:19;99493.81;;;9.87;59.55
7026;BME280;3554;42.132;24.786;2023-02-21T02:42:59;99504.13;;;9.91;59.89
7026;BME280;3554;42.132;24.786;2023-02-21T02:45:32;99508.44;;;9.92;59.60
7026;BME280;3554;42.132;24.786;2023-02-21T02:48:06;99443.56;;;9.55;59.91
7026;BME280;3554;42.132;24.786;2023-02-21T02:50:38;99495.63;;;9.85;59.79
7026;BME280;3554;42.132;24.786;2023-02-21T02:53:05;99486.94;;;9.84;59.90
7026;BME280;3554;42.132;24.786;2023-02-21T02:55:38;99497.97;;;9.92;59.61
7026;BME280;3554;42.132;24.786;2023-02-21T02:58:07;99492.81;;;9.91;60.20
7026;BME280;3554;42.132;24.786;2023-02-21T03:00:36;99452.81;;;9.64;60.37
7026;BME280;3554;42.132;24.786;2023-02-21T03:03:22;99483.28;;;9.88;59.99
7026;BME280;3554;42.132;24.786;2023-02-21T03:06:09;99482.78;;;9.79;60.15
7026;BME280;3554;42.132;24.786;2023-02-21T03:08:46;99478.38;;;9.81;60.21
7026;BME280;3554;42.132;24.786;2023-02-21T03:11:16;99469.19;;;9.69;60.47
7026;BME280;3554;42.132;24.786;2023-02-21T03:13:47;99469.06;;;9.72;60.36
7026;BME280;3554;42.132;24.786;2023-02-21T03:16:22;99482.84;;;9.77;60.29
7026;BME280;3554;42.132;24.786;2023-02-21T03:18:53;99480.19;;;9.79;60.44
7026;BME280;3554;42.132;24.786;2023-02-21T03:21:25;99481.13;;;9.76;60.20
7026;BME280;3554;42.132;24.786;2023-02-21T03:23:56;99473.97;;;9.81;60.54
7026;BME280;3554;42.132;24.786;2023-02-21T03:26:24;99483.28;;;9.90;59.81
7026;BME280;3554;42.132;24.786;2023-02-21T03:28:53;99479.88;;;9.86;59.72
7026;BME280;3554;42.132;24.786;2023-02-21T03:31:23;99492.81;;;9.66;60.31
7026;BME280;3554;42.132;24.786;2023-02-21T03:33:52;99489.22;;;9.70;60.49
7026;BME280;3554;42.132;24.786;2023-02-21T03:36:19;99493.44;;;9.72;60.35
7026;BME280;3554;42.132;24.786;2023-02-21T03:38:48;99483.97;;;9.70;60.60
7026;BME280;3554;42.132;24.786;2023-02-21T03:41:15;99497.63;;;9.78;60.39
7026;BME280;3554;42.132;24.786;2023-02-21T03:43:42;99502.78;;;9.80;60.54
7026;BME280;3554;42.132;24.786;2023-02-21T03:46:08;99493.81;;;9.87;60.28
7026;BME280;3554;42.132;24.786;2023-02-21T03:48:35;99501.50;;;9.91;60.57
7026;BME280;3554;42.132;24.786;2023-02-21T03:51:03;99504.88;;;9.95;60.22
7026;BME280;3554;42.132;24.786;2023-02-21T03:53:29;99499.03;;;9.87;60.23
7026;BME280;3554;42.132;24.786;2023-02-21T03:55:57;99504.00;;;9.94;60.15
7026;BME280;3554;42.132;24.786;2023-02-21T03:58:24;99504.19;;;9.90;60.09
7026;BME280;3554;42.132;24.786;2023-02-21T04:00:51;99503.41;;;9.86;60.75
7026;BME280;3554;42.132;24.786;2023-02-21T04:03:18;99488.31;;;9.94;59.98
7026;BME280;3554;42.132;24.786;2023-02-21T04:05:45;99502.66;;;10.07;60.08
7026;BME280;3554;42.132;24.786;2023-02-21T04:08:11;99494.56;;;10.15;59.41
7026;BME280;3554;42.132;24.786;2023-02-21T04:10:38;99495.19;;;10.21;58.50
7026;BME280;3554;42.132;24.786;2023-02-21T04:13:07;99479.59;;;10.18;58.94
7026;BME280;3554;42.132;24.786;2023-02-21T04:15:33;99495.53;;;10.35;58.54
7026;BME280;3554;42.132;24.786;2023-02-21T04:18:00;99485.97;;;10.34;58.57
7026;BME280;3554;42.132;24.786;2023-02-21T04:20:27;99484.06;;;10.38;58.83
7026;BME280;3554;42.132;24.786;2023-02-21T04:22:54;99479.91;;;10.34;58.68
7026;BME280;3554;42.132;24.786;2023-02-21T04:25:20;99488.56;;;10.34;58.68
7026;BME280;3554;42.132;24.786;2023-02-21T04:27:48;99482.44;;;10.35;58.96
7026;BME280;3554;42.132;24.786;2023-02-21T04:30:16;99488.63;;;10.33;58.80
7026;BME280;3554;42.132;24.786;2023-02-21T04:32:43;99491.44;;;10.28;59.37
7026;BME280;3554;42.132;24.786;2023-02-21T04:35:10;99492.91;;;10.35;59.10
7026;BME280;3554;42.132;24.786;2023-02-21T04:37:37;99499.75;;;10.39;59.21
7026;BME280;3554;42.132;24.786;2023-02-21T04:40:05;99501.31;;;10.43;58.93
7026;BME280;3554;42.132;24.786;2023-02-21T04:42:33;99501.31;;;10.43;58.39
7026;BME280;3554;42.132;24.786;2023-02-21T04:44:59;99499.44;;;10.47;58.33
7026;BME280;3554;42.132;24.786;2023-02-21T04:47:27;99509.97;;;10.45;58.11
7026;BME280;3554;42.132;24.786;2023-02-21T04:49:54;99505.31;;;10.53;58.09
7026;BME280;3554;42.132;24.786;2023-02-21T04:52:21;99506.19;;;10.52;57.64
7026;BME280;3554;42.132;24.786;2023-02-21T04:54:48;99520.09;;;10.54;57.04
7026;BME280;3554;42.132;24.786;2023-02-21T04:57:16;99479.22;;;10.29;57.30
7026;BME280;3554;42.132;24.786;2023-02-21T04:59:42;99503.59;;;10.52;56.77
7026;BME280;3554;42.132;24.786;2023-02-21T05:02:09;99525.19;;;10.57;56.53
7026;BME280;3554;42.132;24.786;2023-02-21T05:04:38;99506.44;;;10.46;56.38
7026;BME280;3554;42.132;24.786;2023-02-21T05:07:04;99524.25;;;10.60;55.86
7026;BME280;3554;42.132;24.786;2023-02-21T05:09:31;99516.44;;;10.58;55.42
7026;BME280;3554;42.132;24.786;2023-02-21T05:11:58;99517.34;;;10.57;55.26
7026;BME280;3554;42.132;24.786;2023-02-21T05:14:25;99521.75;;;10.57;55.73
7026;BME280;3554;42.132;24.786;2023-02-21T05:16:52;99510.81;;;10.46;55.55
7026;BME280;3554;42.132;24.786;2023-02-21T05:19:19;99506.00;;;10.35;56.02
7026;BME280;3554;42.132;24.786;2023-02-21T05:21:53;99514.00;;;10.31;55.93
7026;BME280;3554;42.132;24.786;2023-02-21T05:24:21;99523.28;;;10.39;55.67
7026;BME280;3554;42.132;24.786;2023-02-21T05:26:49;99520.84;;;10.35;56.57
7026;BME280;3554;42.132;24.786;2023-02-21T05:29:15;99523.84;;;10.24;57.14
7026;BME280;3554;42.132;24.786;2023-02-21T05:31:43;99521.28;;;10.23;57.12
7026;BME280;3554;42.132;24.786;2023-02-21T05:34:10;99518.50;;;10.27;57.24
7026;BME280;3554;42.132;24.786;2023-02-21T05:36:36;99518.41;;;10.30;57.66
7026;BME280;3554;42.132;24.786;2023-02-21T05:39:05;99520.78;;;10.36;57.58
7026;BME280;3554;42.132;24.786;2023-02-21T05:41:33;99514.53;;;10.40;57.10
7026;BME280;3554;42.132;24.786;2023-02-21T05:44:01;99522.97;;;10.47;56.95
7026;BME280;3554;42.132;24.786;2023-02-21T05:46:29;99532.50;;;10.49;57.15
7026;BME280;3554;42.132;24.786;2023-02-21T05:48:58;99528.22;;;10.47;57.28
7026;BME280;3554;42.132;24.786;2023-02-21T05:51:25;99525.31;;;10.54;57.37
7026;BME280;3554;42.132;24.786;2023-02-21T05:53:52;99542.56;;;10.60;57.64
7026;BME280;3554;42.132;24.786;2023-02-21T05:56:21;99538.19;;;10.60;58.12
7026;BME280;3554;42.132;24.786;2023-02-21T05:58:48;99534.22;;;10.72;58.02
7026;BME280;3554;42.132;24.786;2023-02-21T06:01:14;99540.09;;;10.78;57.68
7026;BME280;3554;42.132;24.786;2023-02-21T06:03:41;99539.84;;;10.85;58.19
7026;BME280;3554;42.132;24.786;2023-02-21T06:06:08;99537.97;;;10.88;57.98
7026;BME280;3554;42.132;24.786;2023-02-21T06:08:41;99541.16;;;10.96;57.60
7026;BME280;3554;42.132;24.786;2023-02-21T06:11:08;99538.41;;;10.99;57.14
7026;BME280;3554;42.132;24.786;2023-02-21T06:13:36;99540.00;;;11.03;57.36
7026;BME280;3554;42.132;24.786;2023-02-21T06:16:04;99542.69;;;11.02;57.17
7026;BME280;3554;42.132;24.786;2023-02-21T06:18:31;99548.38;;;11.11;56.27
7026;BME280;3554;42.132;24.786;2023-02-21T06:20:57;99547.28;;;11.17;56.68
7026;BME280;3554;42.132;24.786;2023-02-21T06:23:24;99547.66;;;11.29;56.21
7026;BME280;3554;42.132;24.786;2023-02-21T06:25:51;99549.09;;;11.36;55.36
7026;BME280;3554;42.132;24.786;2023-02-21T06:28:18;99550.56;;;11.43;56.06
7026;BME280;3554;42.132;24.786;2023-02-21T06:30:46;99525.34;;;11.41;55.55
7026;BME280;3554;42.132;24.786;2023-02-21T06:33:13;99547.00;;;11.66;55.73
7026;BME280;3554;42.132;24.786;2023-02-21T06:35:39;99550.41;;;11.68;55.03
7026;BME280;3554;42.132;24.786;2023-02-21T06:38:06;99551.94;;;11.73;54.49
7026;BME280;3554;42.132;24.786;2023-02-21T06:40:33;99548.06;;;11.82;54.34
7026;BME280;3554;42.132;24.786;2023-02-21T06:43:00;99552.19;;;11.88;53.98
7026;BME280;3554;42.132;24.786;2023-02-21T06:45:26;99533.31;;;12.00;53.42
7026;BME280;3554;42.132;24.786;2023-02-21T06:47:54;99535.13;;;12.18;53.80
7026;BME280;3554;42.132;24.786;2023-02-21T06:50:21;99527.44;;;12.52;53.27
7026;BME280;3554;42.132;24.786;2023-02-21T06:52:48;99528.22;;;12.72;52.60
7026;BME280;3554;42.132;24.786;2023-02-21T06:55:19;99530.69;;;12.75;52.78
7026;BME280;3554;42.132;24.786;2023-02-21T06:57:46;99509.69;;;12.75;52.57
7026;BME280;3554;42.132;24.786;2023-02-21T07:00:13;99476.25;;;12.60;53.22
7026;BME280;3554;42.132;24.786;2023-02-21T07:02:41;99518.28;;;12.98;52.57
7026;BME280;3554;42.132;24.786;2023-02-21T07:05:10;99510.66;;;12.91;52.47
7026;BME280;3554;42.132;24.786;2023-02-21T07:07:37;99523.25;;;13.04;52.15
7026;BME280;3554;42.132;24.786;2023-02-21T07:10:05;99511.88;;;13.03;52.09
7026;BME280;3554;42.132;24.786;2023-02-21T07:12:31;99514.44;;;13.05;52.88
7026;BME280;3554;42.132;24.786;2023-02-21T07:14:58;99519.63;;;13.06;53.12
7026;BME280;3554;42.132;24.786;2023-02-21T07:17:26;99502.47;;;13.16;53.00
7026;BME280;3554;42.132;24.786;2023-02-21T07:19:53;99491.19;;;13.14;53.02
7026;BME280;3554;42.132;24.786;2023-02-21T07:22:21;99507.13;;;13.28;53.05
7026;BME280;3554;42.132;24.786;2023-02-21T07:24:51;99510.94;;;13.40;52.84
7026;BME280;3554;42.132;24.786;2023-02-21T07:27:18;99508.84;;;13.46;52.61
7026;BME280;3554;42.132;24.786;2023-02-21T07:29:46;99508.38;;;13.55;52.78
7026;BME280;3554;42.132;24.786;2023-02-21T07:32:13;99510.31;;;13.52;52.16
7026;BME280;3554;42.132;24.786;2023-02-21T07:34:40;99519.53;;;13.60;51.97
7026;BME280;3554;42.132;24.786;2023-02-21T07:37:07;99519.22;;;13.66;51.51
7026;BME280;3554;42.132;24.786;2023-02-21T07:39:35;99517.38;;;13.68;51.50
7026;BME280;3554;42.132;24.786;2023-02-21T07:42:02;99517.03;;;13.74;51.54
7026;BME280;3554;42.132;24.786;2023-02-21T07:44:29;99511.00;;;13.89;51.10
7026;BME280;3554;42.132;24.786;2023-02-21T07:46:56;99502.16;;;13.90;51.08
7026;BME280;3554;42.132;24.786;2023-02-21T07:49:23;99515.81;;;13.98;50.80
7026;BME280;3554;42.132;24.786;2023-02-21T07:51:50;99510.88;;;14.08;50.39
7026;BME280;3554;42.132;24.786;2023-02-21T07:54:17;99501.72;;;14.15;50.02
7026;BME280;3554;42.132;24.786;2023-02-21T07:56:46;99483.25;;;14.17;49.74
7026;BME280;3554;42.132;24.786;2023-02-21T07:59:13;99497.47;;;14.30;48.87
7026;BME280;3554;42.132;24.786;2023-02-21T08:01:41;99495.81;;;14.44;48.67
7026;BME280;3554;42.132;24.786;2023-02-21T08:04:07;99483.69;;;14.57;48.38
7026;BME280;3554;42.132;24.786;2023-02-21T08:06:34;99482.66;;;14.75;48.28
7026;BME280;3554;42.132;24.786;2023-02-21T08:09:02;99471.84;;;14.95;47.57
7026;BME280;3554;42.132;24.786;2023-02-21T08:11:28;99475.44;;;15.24;47.34
7026;BME280;3554;42.132;24.786;2023-02-21T08:13:57;99474.91;;;15.33;47.27
7026;BME280;3554;42.132;24.786;2023-02-21T08:16:24;99471.47;;;15.62;46.70
7026;BME280;3554;42.132;24.786;2023-02-21T08:18:52;99477.91;;;15.86;46.44
7026;BME280;3554;42.132;24.786;2023-02-21T08:21:19;99476.78;;;16.19;46.31
7026;BME280;3554;42.132;24.786;2023-02-21T08:23:46;99470.81;;;16.43;45.59
7026;BME280;3554;42.132;24.786;2023-02-21T08:26:13;99470.28;;;16.52;45.49
7026;BME280;3554;42.132;24.786;2023-02-21T08:28:39;99462.06;;;16.57;45.10
7026;BME280;3554;42.132;24.786;2023-02-21T08:31:07;99471.22;;;16.65;45.42
7026;BME280;3554;42.132;24.786;2023-02-21T08:33:34;99465.06;;;16.65;44.63
7026;BME280;3554;42.132;24.786;2023-02-21T08:36:01;99456.28;;;16.78;44.60
7026;BME280;3554;42.132;24.786;2023-02-21T08:38:28;99452.13;;;17.01;44.38
7026;BME280;3554;42.132;24.786;2023-02-21T08:40:55;99461.03;;;17.12;44.06
7026;BME280;3554;42.132;24.786;2023-02-21T08:43:22;99453.75;;;17.16;44.13
7026;BME280;3554;42.132;24.786;2023-02-21T08:45:49;99439.88;;;17.12;43.21
7026;BME280;3554;42.132;24.786;2023-02-21T08:48:17;99441.06;;;17.08;42.74
7026;BME280;3554;42.132;24.786;2023-02-21T08:50:44;99445.09;;;17.14;42.97
7026;BME280;3554;42.132;24.786;2023-02-21T08:53:11;99415.28;;;17.25;42.94
7026;BME280;3554;42.132;24.786;2023-02-21T08:55:38;99436.44;;;17.25;42.81
7026;BME280;3554;42.132;24.786;2023-02-21T08:58:05;99424.13;;;17.11;42.31
7026;BME280;3554;42.132;24.786;2023-02-21T09:00:32;99425.97;;;16.96;42.97
7026;BME280;3554;42.132;24.786;2023-02-21T09:02:59;99421.31;;;16.87;42.99
7026;BME280;3554;42.132;24.786;2023-02-21T09:05:30;99381.94;;;16.56;43.09
7026;BME280;3554;42.132;24.786;2023-02-21T09:07:59;99418.47;;;16.90;43.23
7026;BME280;3554;42.132;24.786;2023-02-21T09:10:27;99415.44;;;16.82;42.99
7026;BME280;3554;42.132;24.786;2023-02-21T09:12:54;99425.69;;;16.74;43.22
7026;BME280;3554;42.132;24.786;2023-02-21T09:15:21;99426.81;;;16.70;43.58
7026;BME280;3554;42.132;24.786;2023-02-21T09:17:48;99425.97;;;16.70;43.41
7026;BME280;3554;42.132;24.786;2023-02-21T09:20:18;99371.97;;;16.33;43.52
7026;BME280;3554;42.132;24.786;2023-02-21T09:22:47;99427.03;;;16.67;43.57
7026;BME280;3554;42.132;24.786;2023-02-21T09:25:17;99426.63;;;16.73;43.66
7026;BME280;3554;42.132;24.786;2023-02-21T09:27:44;99423.78;;;16.76;43.51
7026;BME280;3554;42.132;24.786;2023-02-21T09:30:13;99421.06;;;16.78;43.41
7026;BME280;3554;42.132;24.786;2023-02-21T09:32:40;99412.41;;;16.88;43.40
7026;BME280;3554;42.132;24.786;2023-02-21T09:35:07;99407.50;;;17.09;43.09
7026;BME280;3554;42.132;24.786;2023-02-21T09:37:37;99411.16;;;17.33;42.79
7026;BME280;3554;42.132;24.786;2023-02-21T09:40:11;99410.03;;;17.62;42.60
7026;BME280;3554;42.132;24.786;2023-02-21T09:42:41;99395.66;;;17.91;42.17
7026;BME280;3554;42.132;24.786;2023-02-21T09:45:13;99380.59;;;18.04;41.55
7026;BME280;3554;42.132;24.786;2023-02-21T09:47:41;99386.59;;;18.32;41.16
7026;BME280;3554;42.132;24.786;2023-02-21T09:50:13;99394.31;;;18.47;40.81
7026;BME280;3554;42.132;24.786;2023-02-21T09:52:40;99335.94;;;18.24;40.72
7026;BME280;3554;42.132;24.786;2023-02-21T09:55:15;99393.19;;;18.62;39.94
7026;BME280;3554;42.132;24.786;2023-02-21T09:57:47;99364.53;;;18.67;39.54
7026;BME280;3554;42.132;24.786;2023-02-21T10:00:20;99378.25;;;18.85;39.75
7026;BME280;3554;42.132;24.786;2023-02-21T10:02:56;99347.66;;;18.92;39.30
7026;BME280;3554;42.132;24.786;2023-02-21T10:05:35;99366.69;;;19.20;38.93
7026;BME280;3554;42.132;24.786;2023-02-21T10:08:10;99330.56;;;19.07;38.81
7026;BME280;3554;42.132;24.786;2023-02-21T10:10:44;99376.09;;;19.24;38.59
7026;BME280;3554;42.132;24.786;2023-02-21T10:13:22;99364.81;;;19.34;38.60
7026;BME280;3554;42.132;24.786;2023-02-21T10:15:55;99357.13;;;19.53;38.02
7026;BME280;3554;42.132;24.786;2023-02-21T10:18:31;99354.25;;;19.67;37.91
7026;BME280;3554;42.132;24.786;2023-02-21T10:21:02;99360.44;;;19.89;37.62
7026;BME280;3554;42.132;24.786;2023-02-21T10:23:36;99354.88;;;19.92;37.17
7026;BME280;3554;42.132;24.786;2023-02-21T10:26:08;99349.94;;;19.99;37.33
7026;BME280;3554;42.132;24.786;2023-02-21T10:28:36;99347.50;;;19.96;36.83
7026;BME280;3554;42.132;24.786;2023-02-21T10:31:07;99335.91;;;19.97;37.05
7026;BME280;3554;42.132;24.786;2023-02-21T10:33:36;99336.88;;;20.18;36.84
7026;BME280;3554;42.132;24.786;2023-02-21T10:36:10;99337.94;;;20.15;36.62
7026;BME280;3554;42.132;24.786;2023-02-21T10:38:39;99335.53;;;20.12;36.51
7026;BME280;3554;42.132;24.786;2023-02-21T10:41:09;99320.19;;;20.16;36.68
7026;BME280;3554;42.132;24.786;2023-02-21T10:43:40;99305.56;;;20.10;36.05
7026;BME280;3554;42.132;24.786;2023-02-21T10:46:14;99316.44;;;20.30;36.11
7026;BME280;3554;42.132;24.786;2023-02-21T10:48:42;99303.84;;;20.32;35.90
7026;BME280;3554;42.132;24.786;2023-02-21T10:51:11;99291.78;;;20.27;35.80
7026;BME280;3554;42.132;24.786;2023-02-21T10:53:40;99284.78;;;20.27;36.20
7026;BME280;3554;42.132;24.786;2023-02-21T10:56:23;99293.06;;;20.44;35.99
7026;BME280;3554;42.132;24.786;2023-02-21T10:58:54;99279.31;;;20.39;35.56
7026;BME280;3554;42.132;24.786;2023-02-21T11:01:29;99289.69;;;20.42;35.64
7026;BME280;3554;42.132;24.786;2023-02-21T11:03:59;99286.91;;;20.44;35.81
7026;BME280;3554;42.132;24.786;2023-02-21T11:06:32;99271.06;;;20.42;35.52
7026;BME280;3554;42.132;24.786;2023-02-21T11:08:59;99276.19;;;20.34;35.53
7026;BME280;3554;42.132;24.786;2023-02-21T11:11:36;99244.28;;;20.34;35.88
7026;BME280;3554;42.132;24.786;2023-02-21T11:14:22;99265.72;;;20.53;35.48
7026;BME280;3554;42.132;24.786;2023-02-21T11:17:10;99266.03;;;20.60;35.15
7026;BME280;3554;42.132;24.786;2023-02-21T11:19:49;99250.03;;;20.50;35.34
7026;BME280;3554;42.132;24.786;2023-02-21T11:22:18;99239.53;;;20.49;35.83
7026;BME280;3554;42.132;24.786;2023-02-21T11:24:51;99190.69;;;20.18;35.42
7026;BME280;3554;42.132;24.786;2023-02-21T11:27:21;99229.22;;;20.55;35.07
7026;BME280;3554;42.132;24.786;2023-02-21T11:29:49;99237.91;;;20.57;35.36
7026;BME280;3554;42.132;24.786;2023-02-21T11:32:25;99236.16;;;20.67;34.89
7026;BME280;3554;42.132;24.786;2023-02-21T11:35:01;99228.84;;;20.80;35.41
7026;BME280;3554;42.132;24.786;2023-02-21T11:37:28;99218.19;;;20.80;34.46
7026;BME280;3554;42.132;24.786;2023-02-21T11:39:57;99221.94;;;20.78;34.64
7026;BME280;3554;42.132;24.786;2023-02-21T11:42:29;99199.81;;;20.77;34.52
7026;BME280;3554;42.132;24.786;2023-02-21T11:45:13;99206.97;;;20.77;34.56
7026;BME280;3554;42.132;24.786;2023-02-21T11:47:47;99166.53;;;20.62;34.53
7026;BME280;3554;42.132;24.786;2023-02-21T11:50:22;99187.13;;;20.81;34.31
7026;BME280;3554;42.132;24.786;2023-02-21T11:52:55;99188.72;;;20.93;33.84
7026;BME280;3554;42.132;24.786;2023-02-21T11:55:24;99177.28;;;20.81;33.99
7026;BME280;3554;42.132;24.786;2023-02-21T11:58:03;99180.59;;;20.94;34.13
7026;BME280;3554;42.132;24.786;2023-02-21T12:00:40;99170.28;;;21.01;34.39
7026;BME280;3554;42.132;24.786;2023-02-21T12:03:40;99164.25;;;20.99;33.89
7026;BME280;3554;42.132;24.786;2023-02-21T12:06:19;99165.81;;;21.01;33.77
7026;BME280;3554;42.132;24.786;2023-02-21T12:08:51;99172.44;;;21.07;33.46
7026;BME280;3554;42.132;24.786;2023-02-21T12:11:35;99157.13;;;20.99;33.74
7026;BME280;3554;42.132;24.786;2023-02-21T12:14:36;99149.50;;;21.15;33.71
7026;BME280;3554;42.132;24.786;2023-02-21T12:17:22;99145.19;;;21.24;33.25
7026;BME280;3554;42.132;24.786;2023-02-21T12:20:06;99138.75;;;21.26;32.96
7026;BME280;3554;42.132;24.786;2023-02-21T12:22:48;99127.69;;;21.31;33.44
7026;BME280;3554;42.132;24.786;2023-02-21T12:25:28;99130.63;;;21.28;32.97
7026;BME280;3554;42.132;24.786;2023-02-21T12:28:02;99128.81;;;21.28;32.05
7026;BME280;3554;42.132;24.786;2023-02-21T12:30:43;99115.66;;;21.37;30.99
7026;BME280;3554;42.132;24.786;2023-02-21T12:33:27;99113.00;;;21.37;30.81
7026;BME280;3554;42.132;24.786;2023-02-21T12:36:30;99108.94;;;21.42;30.42
7026;BME280;3554;42.132;24.786;2023-02-21T12:39:15;99116.94;;;21.42;30.41
7026;BME280;3554;42.132;24.786;2023-02-21T12:42:01;99113.41;;;21.42;30.94
7026;BME280;3554;42.132;24.786;2023-02-21T12:44:38;99107.13;;;21.43;30.38
7026;BME280;3554;42.132;24.786;2023-02-21T12:47:13;99098.47;;;21.50;30.53
7026;BME280;3554;42.132;24.786;2023-02-21T12:49:45;99055.78;;;21.31;30.44
7026;BME280;3554;42.132;24.786;2023-02-21T12:52:19;99045.31;;;21.39;29.72
7026;BME280;3554;42.132;24.786;2023-02-21T12:54:51;99066.25;;;21.63;28.95
7026;BME280;3554;42.132;24.786;2023-02-21T12:57:24;99094.28;;;21.67;28.97
7026;BME280;3554;42.132;24.786;2023-02-21T13:00:02;99096.38;;;21.63;28.88
7026;BME280;3554;42.132;24.786;2023-02-21T13:02:40;99084.75;;;21.64;28.70
7026;BME280;3554;42.132;24.786;2023-02-21T13:05:12;99085.16;;;21.69;28.58
7026;BME280;3554;42.132;24.786;2023-02-21T13:07:46;99096.66;;;21.60;28.55
7026;BME280;3554;42.132;24.786;2023-02-21T13:10:19;99048.38;;;21.35;28.63
7026;BME280;3554;42.132;24.786;2023-02-21T13:12:54;99080.25;;;21.55;28.99
7026;BME280;3554;42.132;24.786;2023-02-21T13:15:25;99081.53;;;21.61;28.49
7026;BME280;3554;42.132;24.786;2023-02-21T13:17:59;99073.09;;;21.65;28.65
7026;BME280;3554;42.132;24.786;2023-02-21T13:20:29;99051.47;;;21.49;29.16
7026;BME280;3554;42.132;24.786;2023-02-21T13:26:26;99070.28;;;21.48;28.99
7026;BME280;3554;42.132;24.786;2023-02-21T13:28:57;99055.25;;;21.37;29.51
7026;BME280;3554;42.132;24.786;2023-02-21T13:31:26;99066.19;;;21.44;29.02
7026;BME280;3554;42.132;24.786;2023-02-21T13:33:58;99055.13;;;21.39;28.80
7026;BME280;3554;42.132;24.786;2023-02-21T13:36:28;99071.38;;;21.36;29.30
7026;BME280;3554;42.132;24.786;2023-02-21T13:38:58;99049.91;;;21.27;29.34
7026;BME280;3554;42.132;24.786;2023-02-21T13:41:28;99058.88;;;21.26;29.25
7026;BME280;3554;42.132;24.786;2023-02-21T13:43:56;99064.22;;;21.26;29.35
7026;BME280;3554;42.132;24.786;2023-02-21T13:49:42;99039.00;;;21.31;29.55
7026;BME280;3554;42.132;24.786;2023-02-21T13:52:15;99054.84;;;21.42;29.55
7026;BME280;3554;42.132;24.786;2023-02-21T13:58:30;99051.31;;;21.32;29.48
7026;BME280;3554;42.132;24.786;2023-02-21T14:01:20;99055.78;;;21.31;29.39